createdAt,value
2019-02-21T00:01:01.337Z,39.27
2019-02-21T00:03:28.874Z,40.93
2019-02-21T00:05:56.351Z,40.73
2019-02-21T00:08:23.863Z,40.70
2019-02-21T00:10:51.501Z,37.07
2019-02-21T00:13:18.975Z,39.10
2019-02-21T00:15:46.488Z,39.60
2019-02-21T00:18:15.352Z,39.90
2019-02-21T00:20:42.886Z,44.27
2019-02-21T00:23:10.431Z,47.70
2019-02-21T00:25:37.923Z,44.53
2019-02-21T00:28:05.453Z,42.83
2019-02-21T00:30:35.500Z,38.90
2019-02-21T00:33:02.164Z,36.27
2019-02-21T00:35:29.660Z,35.47
2019-02-21T00:37:57.274Z,35.53
2019-02-21T00:40:24.987Z,35.13
2019-02-21T00:42:52.707Z,33.07
2019-02-21T00:45:20.201Z,35.03
2019-02-21T00:47:47.766Z,32.60
2019-02-21T00:50:15.684Z,31.93
2019-02-21T00:52:43.784Z,31.80
2019-02-21T00:55:11.314Z,32.03
2019-02-21T00:57:38.851Z,29.97
2019-02-21T01:00:11.266Z,32.17
2019-02-21T01:02:38.646Z,31.97
2019-02-21T01:05:06.282Z,30.67
2019-02-21T01:07:34.863Z,32.53
2019-02-21T01:10:02.938Z,32.33
2019-02-21T01:12:30.317Z,31.07
2019-02-21T01:14:57.849Z,31.27
2019-02-21T01:17:25.260Z,31.63
2019-02-21T01:19:52.793Z,31.27
2019-02-21T01:22:20.141Z,31.20
2019-02-21T01:24:47.639Z,30.80
2019-02-21T01:27:15.197Z,29.73
2019-02-21T01:29:42.609Z,30.73
2019-02-21T01:32:10.099Z,30.13
2019-02-21T01:34:37.641Z,31.03
2019-02-21T01:37:05.098Z,29.93
2019-02-21T01:39:32.563Z,32.20
2019-02-21T01:41:59.990Z,31.33
2019-02-21T01:44:27.522Z,31.03
2019-02-21T01:46:55.029Z,31.20
2019-02-21T01:49:22.453Z,32.47
2019-02-21T01:51:49.945Z,29.77
2019-02-21T01:54:17.581Z,32.70
2019-02-21T01:56:45.041Z,30.90
2019-02-21T01:59:12.475Z,30.57
2019-02-21T02:01:40.062Z,31.53
2019-02-21T02:04:07.479Z,32.00
2019-02-21T02:06:34.945Z,31.93
2019-02-21T02:09:02.553Z,31.80
2019-02-21T02:11:29.947Z,32.60
2019-02-21T02:13:57.470Z,32.83
2019-02-21T02:16:26.451Z,31.87
2019-02-21T02:18:53.971Z,30.10
2019-02-21T02:21:21.473Z,29.83
2019-02-21T02:23:48.950Z,32.30
2019-02-21T02:26:16.475Z,28.80
2019-02-21T02:28:44.618Z,29.40
2019-02-21T02:31:22.211Z,31.33
2019-02-21T02:33:41.188Z,33.23
2019-02-21T02:36:08.675Z,34.07
2019-02-21T02:38:36.164Z,31.43
2019-02-21T02:41:03.574Z,32.00
2019-02-21T02:43:31.113Z,31.93
2019-02-21T02:45:58.694Z,31.20
2019-02-21T02:48:26.164Z,31.70
2019-02-21T02:50:54.710Z,32.80
2019-02-21T02:53:22.233Z,30.70
2019-02-21T02:55:49.594Z,27.77
2019-02-21T02:58:17.146Z,30.73
2019-02-21T03:00:44.572Z,26.70
2019-02-21T03:03:11.983Z,28.30
2019-02-21T03:05:39.531Z,27.73
2019-02-21T03:08:06.943Z,25.97
2019-02-21T03:10:34.383Z,29.83
2019-02-21T03:13:01.957Z,28.60
2019-02-21T03:15:29.374Z,28.97
2019-02-21T03:17:56.891Z,26.70
2019-02-21T03:20:24.392Z,27.43
2019-02-21T03:22:52.261Z,26.43
2019-02-21T03:25:19.729Z,27.03
2019-02-21T03:27:47.103Z,26.00
2019-02-21T03:30:15.534Z,24.43
2019-02-21T03:32:43.122Z,24.40
2019-02-21T03:35:10.543Z,23.93
2019-02-21T03:37:38.037Z,24.03
2019-02-21T03:40:06.787Z,24.33
2019-02-21T03:42:34.164Z,24.33
2019-02-21T03:45:01.733Z,22.80
2019-02-21T03:47:29.116Z,22.90
2019-02-21T03:49:56.542Z,23.03
2019-02-21T03:52:23.983Z,24.20
2019-02-21T03:54:51.525Z,23.93
2019-02-21T03:57:18.845Z,22.70
2019-02-21T03:59:46.305Z,22.70
2019-02-21T04:02:13.733Z,22.93
2019-02-21T04:04:41.224Z,21.27
2019-02-21T04:07:08.728Z,18.63
2019-02-21T04:09:36.118Z,19.97
2019-02-21T04:12:03.563Z,20.17
2019-02-21T04:14:32.214Z,20.10
2019-02-21T04:16:59.767Z,20.00
2019-02-21T04:19:27.197Z,18.60
2019-02-21T04:21:54.678Z,18.17
2019-02-21T04:24:22.084Z,18.63
2019-02-21T04:26:49.987Z,19.93
2019-02-21T04:29:17.417Z,20.00
2019-02-21T04:31:44.917Z,20.60
2019-02-21T04:34:12.364Z,20.67
2019-02-21T04:36:39.791Z,20.83
2019-02-21T04:39:07.265Z,19.40
2019-02-21T04:41:34.669Z,21.97
2019-02-21T04:44:03.953Z,21.73
2019-02-21T04:46:31.258Z,22.30
2019-02-21T04:48:58.623Z,21.93
2019-02-21T04:51:26.090Z,23.13
2019-02-21T04:53:53.554Z,23.87
2019-02-21T04:56:21.032Z,24.57
2019-02-21T04:58:48.459Z,24.83
2019-02-21T05:01:15.916Z,24.63
2019-02-21T05:03:43.426Z,24.10
2019-02-21T05:06:11.244Z,22.97
2019-02-21T05:08:38.641Z,23.40
2019-02-21T05:11:06.090Z,22.60
2019-02-21T05:13:34.101Z,23.10
2019-02-21T05:16:01.784Z,24.67
2019-02-21T05:18:29.250Z,25.47
2019-02-21T05:20:56.740Z,27.47
2019-02-21T05:23:24.237Z,27.83
2019-02-21T05:25:51.756Z,29.63
2019-02-21T05:28:23.657Z,29.87
2019-02-21T05:30:52.771Z,30.03
2019-02-21T05:33:46.345Z,28.50
2019-02-21T05:36:15.360Z,29.90
2019-02-21T05:39:04.860Z,29.63
2019-02-21T05:41:43.084Z,29.27
2019-02-21T05:44:15.582Z,28.47
2019-02-21T05:46:53.804Z,26.97
2019-02-21T05:49:25.988Z,28.87
2019-02-21T05:52:01.348Z,28.93
2019-02-21T05:54:30.364Z,31.53
2019-02-21T05:56:59.425Z,34.37
2019-02-21T05:59:31.461Z,36.07
2019-02-21T06:02:12.513Z,38.27
2019-02-21T06:04:53.844Z,40.00
2019-02-21T06:07:25.608Z,41.10
2019-02-21T06:09:57.778Z,46.10
2019-02-21T06:12:33.723Z,42.97
2019-02-21T06:15:06.353Z,44.50
2019-02-21T06:17:38.136Z,44.00
2019-02-21T06:20:23.784Z,40.63
2019-02-21T06:23:01.890Z,44.17
2019-02-21T06:25:33.607Z,44.97
2019-02-21T06:28:05.068Z,43.87
2019-02-21T06:30:34.065Z,48.00
2019-02-21T06:33:04.991Z,46.73
2019-02-21T06:35:30.551Z,46.53
2019-02-21T06:37:58.042Z,46.03
2019-02-21T06:40:25.398Z,45.00
2019-02-21T06:42:55.678Z,50.93
2019-02-21T06:45:23.041Z,53.07
2019-02-21T06:47:50.743Z,49.63
2019-02-21T06:50:26.498Z,52.90
2019-02-21T06:52:47.130Z,50.67
2019-02-21T06:55:14.657Z,49.87
2019-02-21T06:57:42.059Z,46.17
2019-02-21T07:00:09.381Z,44.50
2019-02-21T07:02:36.772Z,47.37
2019-02-21T07:05:04.747Z,44.40
2019-02-21T07:07:32.185Z,46.30
2019-02-21T07:09:59.603Z,43.17
2019-02-21T07:12:26.957Z,43.60
2019-02-21T07:14:54.412Z,43.17
2019-02-21T07:17:22.175Z,44.43
2019-02-21T07:19:49.537Z,42.83
2019-02-21T07:22:17.909Z,39.60
2019-02-21T07:24:47.589Z,37.77
2019-02-21T07:27:14.958Z,38.67
2019-02-21T07:29:42.527Z,40.20
2019-02-21T07:32:10.414Z,37.23
2019-02-21T07:34:37.810Z,34.83
2019-02-21T07:37:05.245Z,32.70
2019-02-21T07:39:36.006Z,33.23
2019-02-21T07:42:01.575Z,28.93
2019-02-21T07:44:29.063Z,31.33
2019-02-21T07:46:56.465Z,31.93
2019-02-21T07:49:25.756Z,29.87
2019-02-21T07:51:53.411Z,30.50
2019-02-21T07:54:20.735Z,30.97
2019-02-21T07:56:48.128Z,26.53
2019-02-21T07:59:15.549Z,25.73
2019-02-21T08:01:42.879Z,26.40
2019-02-21T08:04:11.908Z,26.33
2019-02-21T08:06:39.371Z,23.87
2019-02-21T08:09:07.067Z,22.97
2019-02-21T08:11:34.555Z,26.57
2019-02-21T08:14:02.003Z,28.90
2019-02-21T08:16:29.333Z,27.27
2019-02-21T08:18:56.710Z,27.87
2019-02-21T08:21:24.052Z,28.03
2019-02-21T08:23:51.371Z,29.10
2019-02-21T08:26:20.059Z,28.90
2019-02-21T08:28:47.681Z,27.67
2019-02-21T08:31:15.128Z,30.30
2019-02-21T08:33:57.657Z,29.30
2019-02-21T08:36:15.953Z,23.67
2019-02-21T08:38:43.379Z,23.87
2019-02-21T08:41:10.753Z,24.20
2019-02-21T08:43:38.090Z,22.83
2019-02-21T08:46:05.501Z,23.40
2019-02-21T08:48:32.836Z,23.83
2019-02-21T08:51:00.162Z,26.70
2019-02-21T08:53:28.296Z,24.03
2019-02-21T08:55:56.133Z,22.50
2019-02-21T08:58:23.604Z,22.27
2019-02-21T09:00:51.014Z,21.67
2019-02-21T09:03:18.440Z,22.63
2019-02-21T09:05:45.805Z,17.90
2019-02-21T09:08:13.148Z,17.23
2019-02-21T09:10:40.664Z,16.27
2019-02-21T09:13:10.010Z,15.53
2019-02-21T09:15:37.372Z,14.83
2019-02-21T09:18:04.863Z,16.07
2019-02-21T09:20:32.524Z,14.67
2019-02-21T09:22:59.990Z,16.13
2019-02-21T09:25:27.441Z,15.80
2019-02-21T09:27:54.941Z,15.40
2019-02-21T09:30:22.388Z,15.07
2019-02-21T09:32:49.714Z,14.87
2019-02-21T09:35:17.345Z,16.30
2019-02-21T09:37:44.736Z,14.60
2019-02-21T09:40:13.266Z,13.97
2019-02-21T09:42:40.644Z,14.30
2019-02-21T09:45:11.828Z,12.73
2019-02-21T09:47:40.921Z,13.43
2019-02-21T09:50:09.526Z,12.97
2019-02-21T09:52:36.915Z,13.67
2019-02-21T09:55:06.147Z,12.97
2019-02-21T09:57:33.873Z,11.60
2019-02-21T10:00:01.212Z,12.90
2019-02-21T10:02:28.547Z,15.20
2019-02-21T10:05:04.583Z,13.67
2019-02-21T10:07:25.123Z,14.33
2019-02-21T10:09:52.493Z,13.60
2019-02-21T10:12:19.959Z,12.87
2019-02-21T10:14:47.378Z,12.63
2019-02-21T10:17:14.733Z,13.43
2019-02-21T10:19:42.105Z,14.47
2019-02-21T10:22:09.555Z,15.43
2019-02-21T10:24:37.461Z,14.77
2019-02-21T10:27:04.832Z,15.47
2019-02-21T10:29:32.255Z,14.40
2019-02-21T10:31:59.700Z,15.93
2019-02-21T10:34:27.102Z,15.60
2019-02-21T10:36:54.628Z,14.53
2019-02-21T10:39:22.260Z,13.87
2019-02-21T10:41:49.599Z,14.53
2019-02-21T10:44:17.012Z,15.33
2019-02-21T10:46:50.304Z,14.23
2019-02-21T10:49:17.802Z,15.40
2019-02-21T10:51:45.225Z,15.70
2019-02-21T10:54:12.673Z,13.73
2019-02-21T10:56:40.301Z,13.57
2019-02-21T10:59:07.721Z,13.67
2019-02-21T11:01:35.216Z,13.40
2019-02-21T11:04:02.646Z,14.63
2019-02-21T11:06:31.637Z,13.43
2019-02-21T11:08:59.136Z,12.80
2019-02-21T11:11:26.552Z,13.73
2019-02-21T11:13:54.172Z,13.00
2019-02-21T11:16:21.512Z,12.73
2019-02-21T11:18:48.957Z,12.87
2019-02-21T11:21:16.400Z,12.53
2019-02-21T11:23:43.874Z,12.23
2019-02-21T11:26:11.296Z,10.83
2019-02-21T11:28:38.698Z,12.40
2019-02-21T11:31:06.456Z,11.80
2019-02-21T11:33:33.779Z,11.33
2019-02-21T11:36:01.188Z,11.63
2019-02-21T11:38:28.526Z,12.67
2019-02-21T11:40:55.885Z,15.13
2019-02-21T11:43:23.294Z,15.03
2019-02-21T11:45:53.860Z,15.20
2019-02-21T11:48:19.660Z,14.83
2019-02-21T11:50:47.038Z,14.90
2019-02-21T11:53:14.451Z,14.23
2019-02-21T11:55:43.881Z,15.00
2019-02-21T11:58:11.338Z,14.27
2019-02-21T12:00:38.788Z,14.37
2019-02-21T12:03:06.180Z,14.83
2019-02-21T12:05:34.755Z,13.67
2019-02-21T12:08:02.141Z,15.57
2019-02-21T12:10:30.009Z,16.93
2019-02-21T12:12:57.330Z,15.67
2019-02-21T12:15:24.758Z,15.77
2019-02-21T12:17:52.239Z,17.92
2019-02-21T12:20:19.960Z,14.83
2019-02-21T12:22:47.392Z,16.57
2019-02-21T12:25:16.342Z,16.17
2019-02-21T12:27:43.848Z,16.87
2019-02-21T12:30:12.590Z,18.63
2019-02-21T12:32:41.274Z,19.63
2019-02-21T12:35:08.627Z,20.17
2019-02-21T12:37:36.132Z,19.67
2019-02-21T12:40:04.476Z,16.30
2019-02-21T12:42:31.943Z,22.43
2019-02-21T12:44:59.295Z,22.30
2019-02-21T12:47:26.624Z,21.37
2019-02-21T12:49:55.405Z,22.60
2019-02-21T12:52:22.957Z,24.43
2019-02-21T12:54:51.922Z,24.03
2019-02-21T12:57:19.481Z,21.20
2019-02-21T12:59:47.217Z,23.03
2019-02-21T13:02:14.595Z,24.00
2019-02-21T13:04:41.929Z,22.30
2019-02-21T13:07:09.415Z,21.33
2019-02-21T13:09:36.839Z,21.43
2019-02-21T13:12:04.183Z,22.90
2019-02-21T13:14:31.606Z,20.27
2019-02-21T13:16:58.969Z,22.33
2019-02-21T13:19:26.297Z,21.63
2019-02-21T13:21:53.669Z,22.03
2019-02-21T13:24:21.078Z,22.30
2019-02-21T13:26:48.819Z,22.77
2019-02-21T13:29:16.149Z,23.53
2019-02-21T13:31:43.473Z,25.00
2019-02-21T13:34:10.809Z,23.53
2019-02-21T13:36:38.293Z,24.90
2019-02-21T13:39:06.645Z,25.03
2019-02-21T13:41:33.981Z,23.43
2019-02-21T13:44:01.391Z,22.53
2019-02-21T13:46:36.811Z,25.77
2019-02-21T13:48:58.067Z,25.97
2019-02-21T13:51:25.515Z,25.60
2019-02-21T13:53:53.355Z,25.73
2019-02-21T13:56:20.753Z,24.83
2019-02-21T13:58:48.305Z,26.73
2019-02-21T14:01:15.692Z,24.40
2019-02-21T14:03:43.103Z,23.73
2019-02-21T14:06:10.450Z,26.03
2019-02-21T14:08:37.943Z,28.03
2019-02-21T14:11:05.390Z,31.13
2019-02-21T14:13:32.778Z,32.43
2019-02-21T14:16:00.177Z,29.40
2019-02-21T14:18:27.805Z,30.40
2019-02-21T14:20:55.165Z,30.10
2019-02-21T14:23:22.593Z,29.00
2019-02-21T14:25:50.069Z,29.27
2019-02-21T14:28:17.434Z,28.33
2019-02-21T14:30:44.826Z,28.63
2019-02-21T14:33:12.197Z,27.53
2019-02-21T14:35:39.561Z,28.80
2019-02-21T14:38:07.369Z,27.47
2019-02-21T14:40:34.882Z,25.83
2019-02-21T14:43:02.237Z,26.93
2019-02-21T14:45:29.671Z,25.90
2019-02-21T14:47:57.058Z,25.23
2019-02-21T14:50:24.481Z,24.30
2019-02-21T14:52:53.442Z,26.70
2019-02-21T14:55:20.821Z,26.77
2019-02-21T14:57:48.156Z,33.80
2019-02-21T15:00:39.322Z,32.13
2019-02-21T15:03:06.676Z,36.87
2019-02-21T15:05:34.004Z,31.80
2019-02-21T15:08:01.447Z,28.13
2019-02-21T15:10:28.812Z,26.07
2019-02-21T15:12:56.404Z,25.60
2019-02-21T15:15:24.692Z,25.50
2019-02-21T15:17:52.030Z,26.80
2019-02-21T15:20:19.545Z,28.17
2019-02-21T15:22:46.922Z,28.67
2019-02-21T15:25:14.387Z,25.47
2019-02-21T15:27:41.732Z,25.77
2019-02-21T15:30:13.268Z,27.53
2019-02-21T15:32:40.668Z,23.17
2019-02-21T15:35:07.994Z,25.33
2019-02-21T15:37:35.368Z,24.77
2019-02-21T15:40:02.947Z,25.53
2019-02-21T15:42:30.346Z,22.37
2019-02-21T15:44:57.808Z,23.67
2019-02-21T15:47:25.111Z,21.67
2019-02-21T15:49:52.582Z,19.40
2019-02-21T15:52:22.548Z,20.97
2019-02-21T15:54:49.116Z,19.57
2019-02-21T15:57:16.563Z,18.47
2019-02-21T15:59:43.921Z,19.30
2019-02-21T16:02:11.653Z,21.23
2019-02-21T16:04:39.034Z,20.37
2019-02-21T16:07:06.612Z,20.83
2019-02-21T16:09:34.080Z,22.73
2019-02-21T16:12:02.609Z,22.80
2019-02-21T16:14:29.992Z,24.80
2019-02-21T16:16:57.426Z,24.73
2019-02-21T16:19:25.194Z,25.87
2019-02-21T16:21:52.700Z,27.67
2019-02-21T16:24:20.037Z,27.50
2019-02-21T16:26:47.455Z,26.73
2019-02-21T16:29:14.877Z,26.13
2019-02-21T16:31:42.210Z,21.27
2019-02-21T16:34:09.597Z,21.40
2019-02-21T16:36:36.978Z,25.00
2019-02-21T16:39:05.259Z,24.50
2019-02-21T16:41:36.252Z,25.07
2019-02-21T16:44:02.178Z,19.50
2019-02-21T16:46:29.662Z,18.27
2019-02-21T16:48:57.140Z,20.43
2019-02-21T16:51:24.899Z,19.10
2019-02-21T16:53:52.414Z,20.07
2019-02-21T16:56:19.817Z,21.70
2019-02-21T16:58:47.278Z,22.00
2019-02-21T17:01:14.845Z,23.20
2019-02-21T17:03:42.175Z,21.53
2019-02-21T17:06:09.662Z,20.00
2019-02-21T17:08:37.045Z,19.07
2019-02-21T17:11:04.451Z,17.70
2019-02-21T17:13:31.822Z,22.00
2019-02-21T17:16:01.438Z,24.20
2019-02-21T17:18:28.137Z,24.47
2019-02-21T17:20:55.559Z,24.40
2019-02-21T17:23:23.251Z,26.80
2019-02-21T17:25:50.715Z,23.77
2019-02-21T17:28:18.140Z,21.63
2019-02-21T17:30:45.644Z,21.07
2019-02-21T17:33:13.174Z,18.20
2019-02-21T17:35:40.544Z,20.63
2019-02-21T17:38:08.041Z,24.17
2019-02-21T17:40:35.475Z,25.07
2019-02-21T17:43:02.991Z,25.13
2019-02-21T17:45:30.586Z,24.83
2019-02-21T17:47:58.088Z,27.47
2019-02-21T17:50:25.478Z,26.63
2019-02-21T17:52:52.962Z,27.30
2019-02-21T17:55:20.361Z,27.43
2019-02-21T17:57:47.759Z,25.93
2019-02-21T18:00:17.421Z,25.23
2019-02-21T18:02:44.875Z,27.60
2019-02-21T18:05:12.234Z,27.43
2019-02-21T18:07:39.683Z,33.20
2019-02-21T18:10:11.693Z,29.70
2019-02-21T18:12:41.853Z,30.43
2019-02-21T18:15:26.799Z,30.00
2019-02-21T18:17:54.193Z,30.77
2019-02-21T18:20:21.599Z,28.53
2019-02-21T18:22:49.805Z,29.37
2019-02-21T18:25:21.989Z,30.47
2019-02-21T18:27:49.400Z,33.77
2019-02-21T18:30:17.047Z,35.03
2019-02-21T18:32:44.392Z,35.90
2019-02-21T18:35:11.845Z,34.63
2019-02-21T18:37:46.975Z,34.50
2019-02-21T18:40:17.274Z,34.37
2019-02-21T18:42:41.625Z,36.43
2019-02-21T18:45:09.517Z,41.20
2019-02-21T18:47:37.024Z,38.60
2019-02-21T18:50:06.168Z,40.53
2019-02-21T18:52:33.669Z,41.50
2019-02-21T18:55:01.203Z,39.83
2019-02-21T18:57:28.679Z,37.27
2019-02-21T18:59:56.080Z,35.67
2019-02-21T19:02:23.399Z,34.97
2019-02-21T19:04:51.133Z,33.17
2019-02-21T19:07:18.602Z,32.23
2019-02-21T19:09:46.155Z,30.93
2019-02-21T19:12:13.504Z,28.30
2019-02-21T19:14:40.913Z,29.03
2019-02-21T19:17:09.170Z,27.07
2019-02-21T19:19:36.524Z,27.50
2019-02-21T19:22:03.953Z,26.20
2019-02-21T19:24:31.477Z,29.57
2019-02-21T19:26:58.848Z,28.57
2019-02-21T19:29:26.270Z,26.67
2019-02-21T19:31:53.876Z,27.97
2019-02-21T19:34:21.267Z,28.27
2019-02-21T19:36:48.760Z,26.03
2019-02-21T19:39:16.659Z,28.43
2019-02-21T19:41:44.034Z,29.00
2019-02-21T19:44:11.535Z,28.10
2019-02-21T19:46:39.217Z,27.60
2019-02-21T19:49:06.720Z,30.70
2019-02-21T19:51:35.615Z,30.87
2019-02-21T19:54:03.012Z,31.97
2019-02-21T19:56:31.626Z,34.60
2019-02-21T19:59:03.765Z,32.73
2019-02-21T20:01:31.306Z,31.43
2019-02-21T20:03:58.799Z,34.00
2019-02-21T20:06:26.197Z,32.73
2019-02-21T20:08:53.608Z,32.17
2019-02-21T20:11:20.974Z,35.13
2019-02-21T20:13:51.382Z,38.13
2019-02-21T20:16:18.756Z,35.17
2019-02-21T20:18:46.256Z,36.83
2019-02-21T20:21:13.710Z,37.27
2019-02-21T20:23:41.062Z,35.73
2019-02-21T20:26:17.931Z,36.70
2019-02-21T20:28:37.681Z,38.33
2019-02-21T20:31:06.437Z,37.27
2019-02-21T20:33:33.892Z,36.63
2019-02-21T20:36:02.833Z,38.10
2019-02-21T20:38:32.361Z,38.30
2019-02-21T20:41:02.399Z,40.43
2019-02-21T20:43:29.864Z,39.17
2019-02-21T20:45:57.410Z,39.17
2019-02-21T20:48:24.927Z,43.97
2019-02-21T20:50:57.046Z,44.13
2019-02-21T20:53:21.498Z,42.73
2019-02-21T20:55:48.908Z,46.60
2019-02-21T20:58:16.411Z,45.47
2019-02-21T21:00:43.882Z,47.00
2019-02-21T21:03:11.257Z,45.37
2019-02-21T21:05:38.766Z,44.13
2019-02-21T21:08:06.274Z,43.80
2019-02-21T21:10:33.686Z,50.23
2019-02-21T21:13:03.234Z,50.00
2019-02-21T21:15:30.265Z,51.77
2019-02-21T21:17:57.673Z,53.43
2019-02-21T21:20:26.047Z,52.73
2019-02-21T21:22:53.595Z,50.50
2019-02-21T21:25:20.958Z,47.70
2019-02-21T21:27:49.558Z,49.80
2019-02-21T21:30:18.569Z,49.03
2019-02-21T21:32:46.025Z,50.40
2019-02-21T21:35:13.400Z,49.70
2019-02-21T21:37:40.994Z,49.30
2019-02-21T21:40:09.997Z,46.20
2019-02-21T21:42:37.412Z,46.53
2019-02-21T21:45:06.510Z,47.50
2019-02-21T21:47:33.911Z,46.60
2019-02-21T21:50:01.333Z,47.53
2019-02-21T21:52:28.725Z,49.33
2019-02-21T21:54:56.150Z,47.33
2019-02-21T21:57:23.482Z,45.00
2019-02-21T21:59:50.921Z,45.60
2019-02-21T22:02:18.359Z,46.60
2019-02-21T22:04:45.843Z,43.80
2019-02-21T22:07:13.571Z,44.93
2019-02-21T22:09:42.596Z,41.87
2019-02-21T22:12:10.093Z,42.00
2019-02-21T22:14:37.618Z,44.17
2019-02-21T22:17:05.077Z,41.10
2019-02-21T22:19:33.674Z,42.97
2019-02-21T22:22:01.222Z,41.97
2019-02-21T22:24:28.985Z,41.33
2019-02-21T22:26:56.471Z,39.47
2019-02-21T22:29:23.974Z,37.77
2019-02-21T22:31:51.576Z,39.77
2019-02-21T22:34:19.048Z,38.80
2019-02-21T22:36:46.553Z,41.00
2019-02-21T22:39:16.598Z,39.27
2019-02-21T22:41:43.226Z,40.13
2019-02-21T22:44:10.994Z,39.23
2019-02-21T22:46:38.489Z,40.07
2019-02-21T22:49:05.976Z,38.37
2019-02-21T22:51:33.457Z,39.07
2019-02-21T22:54:00.992Z,38.80
2019-02-21T22:56:28.486Z,38.13
2019-02-21T22:58:56.104Z,38.73
2019-02-21T23:01:25.736Z,37.07
2019-02-21T23:03:54.919Z,39.27
2019-02-21T23:06:24.051Z,39.07
2019-02-21T23:08:52.406Z,39.87
2019-02-21T23:11:19.886Z,39.03
2019-02-21T23:13:47.874Z,39.90
2019-02-21T23:16:16.924Z,38.37
2019-02-21T23:18:44.408Z,37.53
2019-02-21T23:21:13.226Z,40.13
2019-02-21T23:23:40.726Z,38.57
2019-02-21T23:26:08.252Z,37.97
2019-02-21T23:28:35.771Z,37.80
2019-02-21T23:31:03.292Z,38.13
2019-02-21T23:33:32.842Z,37.07
2019-02-21T23:36:01.037Z,37.77
2019-02-21T23:38:28.639Z,37.87
2019-02-21T23:40:56.098Z,37.47
2019-02-21T23:43:23.618Z,38.17
2019-02-21T23:45:51.149Z,38.10
2019-02-21T23:48:19.863Z,38.50
2019-02-21T23:50:48.930Z,37.10
2019-02-21T23:53:16.405Z,37.47
2019-02-21T23:55:44.927Z,34.13
2019-02-21T23:58:12.392Z,34.33
